Watkinsville, GA (30677)

5:09 PM EDT on August 24, 2016 (GMT -0400)
Mars Hill Rd | | Change Station

Elev 679 ft 33.90 °N, 83.46 °W | Updated 32 seconds ago

Overcast
Overcast
81.3 °F
Feels Like 87 °F
N
1.1
Wind Variable Wind from East

Today
High -- | Low -- °F
--% Chance of Precip.
Yesterday
High -- | Low -- °F
Precip. -- in
Pressure 30.21 in
Visibility 10.0 miles
Clouds Overcast 8000 ft
Heat Index 87 °F
Dew Point 75 °F
Humidity 81%
Rainfall 0.02 in
Snow Depth Not available.
7:02 AM 8:08 PM
Waning Gibbous, 53% visible
METAR KAHN 242051Z 00000KT 10SM OVC080 27/23 A3023 RMK AO2 SLP229 60020 T02670233 58019
Pressure 30.21 in
Visibility 10.0 miles
Clouds Overcast 8000 ft
Heat Index 87 °F
Dew Point 75 °F
Humidity 81%
Rainfall 0.02 in
Snow Depth Not available.
7:02 AM 8:08 PM
Waning Gibbous, 53% visible
METAR KAHN 242051Z 00000KT 10SM OVC080 27/23 A3023 RMK AO2 SLP229 60020 T02670233 58019
A tropical disturbance we've monitored since last week, may have a dangerous future in store for the southeast U.S. and Gulf coasts this weekend into next week. The National Weather Service has issued a flash flood watch for Puerto Rico and the U.S. Virgin Islands. Rainfall totals of 2-4 inches (locally higher) are expected through Wednesday night in those areas.

The National Hurricane Center says this system has a medium to high chance of development into a tropical depression or tropical storm over the next 2 to 5 days. A tight consensus of our guidance suggests the disturbance should continue in a general west or west-northwest trajectory the next several days.

10-Day Weather Forecast

Almanac

Astronomy

Aug. 24, 2016 Rise Set
Actual Time
Civil Twilight
Nautical Twilight
Astronomical Twilight
Moon
Length of Visible Light
Length of Day
Tomorrow will be .
, % of the Moon is Illuminated

Today's Extremes

State Highs State Lows

Community

WunderPhotos

Upload Photos

1,934,714 photos uploaded!

WunderBlog® & News

Nearby

Air Quality

  Air Quality AQ Index Pollutant
Not available.

Snow Depth

Station Depth Elevation

Earthquake Activity

City Distance Mag. Time & Date
Minimum magnitude displayed is 2.5.

Coastal Water Temperatures

Place Temperature

Stations

Nearby Weather Stations

Station Location Temp. Windchill Dew Point Humidity Wind Precip. Elev Updated Type
                   

Watches & Warnings

There are currently no watches in effect.